Time;durP1;ratioP1;P1;durP2;ratioP2;P2;SDS_P1;SDS_P2;PMS_P1;PMS_P2;Temp;Humidity;BMP_temperature;BMP_pressure;BME280_temperature;BME280_humidity;BME280_pressure;Samples;Min_cycle;Max_cycle;Signal;HPM_P1;HPM_P2
2022/01/16 00:00:17;;;;;;;124.88;52.65;;;;;;;-3.27;nan;101794.13;5091173;28;20040;-72
2022/01/16 00:05:24;;;;;;;115.25;47.53;;;;;;;-3.25;nan;101795.69;5061538;28;20064;-71
2022/01/16 00:07:50;;;;;;;113.07;46.28;;;;;;;-3.38;nan;101771.63;5055080;28;20036;-71
2022/01/16 00:10:19;;;;;;;118.57;46.97;;;;;;;-3.40;nan;101778.63;5053832;28;20081;-72
2022/01/16 00:12:49;;;;;;;111.32;46.63;;;;;;;-3.43;nan;101782.22;5072790;28;20036;-72
2022/01/16 00:15:16;;;;;;;106.60;44.60;;;;;;;-3.48;nan;101793.75;5070358;28;20108;-71
2022/01/16 00:17:53;;;;;;;110.55;46.38;;;;;;;-3.60;nan;101786.84;5068339;28;20075;-72
2022/01/16 00:20:19;;;;;;;107.85;43.67;;;;;;;-3.68;nan;101811.31;5039122;28;20037;-72
2022/01/16 00:22:47;;;;;;;107.93;45.83;;;;;;;-3.76;nan;101808.41;5069958;28;20102;-72
2022/01/16 00:25:12;;;;;;;105.28;44.92;;;;;;;-3.86;nan;101789.31;5054361;28;20040;-71
2022/01/16 00:27:38;;;;;;;100.15;43.00;;;;;;;-3.90;nan;101798.97;5072794;28;20482;-72
2022/01/16 00:30:04;;;;;;;106.68;44.88;;;;;;;-3.86;nan;101818.44;5052359;28;20064;-72
2022/01/16 00:32:29;;;;;;;106.53;45.40;;;;;;;-3.92;nan;101825.72;5053652;28;20029;-71
2022/01/16 00:34:54;;;;;;;103.22;43.83;;;;;;;-3.94;nan;101788.97;5061101;28;20031;-72
2022/01/16 00:37:20;;;;;;;103.53;43.42;;;;;;;-4.15;nan;101737.94;5071500;28;20032;-72
2022/01/16 00:39:45;;;;;;;107.90;43.88;;;;;;;-3.87;nan;101797.97;5072522;28;20546;-72
2022/01/16 00:42:11;;;;;;;103.45;43.88;;;;;;;-3.88;nan;101792.00;5071462;28;20098;-70
2022/01/16 00:44:36;;;;;;;108.50;44.08;;;;;;;-3.95;nan;101764.16;5054777;28;20489;-72
2022/01/16 00:47:02;;;;;;;99.00;42.90;;;;;;;-3.89;nan;101787.75;5058865;28;20048;-72
2022/01/16 00:49:27;;;;;;;102.15;43.20;;;;;;;-3.92;nan;101793.09;5047755;28;20051;-72
2022/01/16 00:51:52;;;;;;;103.03;42.63;;;;;;;-3.97;nan;101815.72;5046379;28;20040;-72
2022/01/16 00:54:18;;;;;;;103.93;43.47;;;;;;;-3.88;nan;101794.56;5057032;28;20028;-71
2022/01/16 00:56:43;;;;;;;105.88;44.15;;;;;;;-3.87;nan;101747.31;5055656;28;20116;-72
2022/01/16 00:59:08;;;;;;;119.10;47.97;;;;;;;-3.94;nan;101782.06;5055869;28;20036;-71
2022/01/16 01:01:34;;;;;;;127.60;49.70;;;;;;;-4.25;nan;101716.28;5065804;28;20033;-71
2022/01/16 01:03:59;;;;;;;129.57;49.20;;;;;;;-3.94;nan;101786.41;5054442;28;20044;-72
2022/01/16 01:06:25;;;;;;;123.35;49.33;;;;;;;-4.04;nan;101790.47;5065206;28;20085;-72
2022/01/16 01:08:50;;;;;;;130.15;50.60;;;;;;;-3.94;nan;101694.59;5062870;28;20450;-73
2022/01/16 01:11:18;;;;;;;123.88;49.17;;;;;;;-3.99;nan;101659.81;5055231;28;20116;-71
2022/01/16 01:13:57;;;;;;;132.95;51.40;;;;;;;-3.89;nan;101722.59;5048657;28;20058;-72
2022/01/16 01:16:24;;;;;;;94.78;37.85;;;;;;;-3.97;nan;101694.78;5066872;28;20037;-72
2022/01/16 01:18:49;;;;;;;129.45;51.13;;;;;;;-3.89;nan;101692.53;5052647;28;20036;-72
2022/01/16 01:21:28;;;;;;;129.68;46.72;;;;;;;-4.11;nan;101677.66;5056935;28;20102;-71
2022/01/16 01:23:55;;;;;;;135.10;51.30;;;;;;;-3.89;nan;101744.00;5070313;28;20032;-71
2022/01/16 01:26:26;;;;;;;133.05;51.15;;;;;;;-3.77;nan;101770.72;5050591;28;20434;-71
2022/01/16 01:28:52;;;;;;;144.07;53.83;;;;;;;-3.73;nan;101779.91;5053937;28;20090;-71
2022/01/16 01:31:17;;;;;;;141.63;53.08;;;;;;;-3.68;nan;101766.72;5069800;28;20033;-72
2022/01/16 01:33:43;;;;;;;143.55;53.72;;;;;;;-3.66;nan;101775.19;5052513;28;20475;-71
2022/01/16 01:36:08;;;;;;;132.23;49.08;;;;;;;-3.65;nan;101769.09;5062821;28;20097;-72
2022/01/16 01:38:34;;;;;;;136.45;50.85;;;;;;;-3.47;nan;101813.44;5070276;28;20032;-70
2022/01/16 01:40:59;;;;;;;136.15;51.67;;;;;;;-3.49;nan;101792.94;5065686;28;20060;-72
2022/01/16 01:51:42;;;;;;;135.45;47.80;;;;;;;-3.09;nan;101807.53;5057549;28;20033;-71
2022/01/16 01:54:08;;;;;;;141.07;50.58;;;;;;;-3.03;nan;101812.28;5046681;28;20048;-71
2022/01/16 01:56:35;;;;;;;151.82;52.58;;;;;;;-3.05;nan;101789.19;5057072;28;20386;-73
2022/01/16 01:59:01;;;;;;;138.77;51.35;;;;;;;-2.89;nan;101778.69;5037876;28;20424;-73
2022/01/16 02:01:28;;;;;;;142.57;50.78;;;;;;;-2.91;nan;101752.19;5044888;28;20123;-75
2022/01/16 02:03:54;;;;;;;135.48;49.75;;;;;;;-2.82;nan;101785.09;5053827;28;20394;-73
2022/01/16 02:06:22;;;;;;;135.70;50.28;;;;;;;-2.80;nan;101765.19;5058114;28;20033;-72
2022/01/16 02:08:51;;;;;;;636.38;86.72;;;;;;;-2.75;nan;101774.34;5050779;28;20367;-73
2022/01/16 02:11:17;;;;;;;130.80;48.37;;;;;;;-2.61;nan;101787.97;5071916;28;20047;-73
2022/01/16 02:13:56;;;;;;;134.43;49.90;;;;;;;-2.56;nan;101803.13;5063866;28;20115;-72
2022/01/16 02:28:21;;;;;;;115.05;44.22;;;;;;;-2.41;nan;101770.31;5058887;28;20029;-72
2022/01/16 02:32:49;;;;;;;117.80;44.80;;;;;;;-2.40;nan;101777.91;5070960;28;20513;-73
2022/01/16 02:35:14;;;;;;;114.60;45.22;;;;;;;-2.28;nan;101788.31;5073900;28;20423;-72
2022/01/16 02:37:40;;;;;;;109.45;41.45;;;;;;;-2.32;nan;101769.66;5073439;28;20109;-73
2022/01/16 02:40:17;;;;;;;107.53;41.35;;;;;;;-2.17;nan;101791.81;5056758;28;20119;-73
2022/01/16 02:42:48;;;;;;;98.38;37.28;;;;;;;-2.21;nan;101785.19;5037513;28;20051;-73
2022/01/16 02:45:27;;;;;;;96.93;37.40;;;;;;;-2.14;nan;101789.00;5056224;28;20391;-72
2022/01/16 02:47:53;;;;;;;93.05;37.55;;;;;;;-2.21;nan;101769.72;5055415;28;20504;-73
2022/01/16 02:50:19;;;;;;;96.10;36.55;;;;;;;-2.15;nan;101771.06;5054197;28;20043;-73
2022/01/16 02:52:44;;;;;;;86.70;35.28;;;;;;;-2.12;nan;101781.16;5064246;28;20033;-73
2022/01/16 02:55:13;;;;;;;108.40;34.40;;;;;;;-2.42;nan;101732.53;5047721;28;20036;-73
2022/01/16 02:57:38;;;;;;;81.70;34.47;;;;;;;-2.16;nan;101770.22;5062374;28;20032;-73
2022/01/16 03:00:04;;;;;;;79.78;33.33;;;;;;;-2.07;nan;101776.50;5072822;28;20630;-74
2022/01/16 03:02:30;;;;;;;81.63;32.65;;;;;;;-2.16;nan;101769.41;5045874;28;20412;-72
2022/01/16 03:04:55;;;;;;;77.32;31.45;;;;;;;-2.21;nan;101761.16;5042753;28;20028;-72
2022/01/16 03:07:22;;;;;;;71.70;30.52;;;;;;;-2.18;nan;101759.22;5070461;28;20043;-72
2022/01/16 03:12:51;;;;;;;68.18;29.58;;;;;;;-2.18;nan;101766.09;5067368;28;20037;-74
2022/01/16 03:15:18;;;;;;;76.10;29.63;;;;;;;-2.12;nan;101773.41;5066452;28;20037;-73
2022/01/16 03:21:53;;;;;;;72.13;30.02;;;;;;;-2.22;nan;101752.59;5071899;28;20045;-73
2022/01/16 03:23:25;;;;;;;72.65;28.75;;;;;;;-2.08;nan;101774.00;5068470;28;20106;-72
2022/01/16 03:25:51;;;;;;;71.25;29.50;;;;;;;-2.16;nan;101759.06;5068302;28;20033;-73
2022/01/16 03:28:18;;;;;;;70.53;29.05;;;;;;;-2.18;nan;101748.88;5063790;28;20438;-73
2022/01/16 03:30:44;;;;;;;67.90;29.40;;;;;;;-2.25;nan;101751.97;5068054;28;20429;-73
2022/01/16 03:33:09;;;;;;;72.85;30.08;;;;;;;-2.12;nan;101768.25;5063009;28;20102;-71
2022/01/16 03:35:35;;;;;;;65.95;28.08;;;;;;;-2.10;nan;101774.16;5054347;28;20463;-72
2022/01/16 03:38:00;;;;;;;69.10;29.38;;;;;;;-2.10;nan;101773.31;5054502;28;20048;-73
2022/01/16 03:40:26;;;;;;;68.97;29.08;;;;;;;-2.16;nan;101766.81;5069947;28;20071;-72
2022/01/16 03:42:52;;;;;;;68.68;27.55;;;;;;;-2.24;nan;101757.03;5074390;28;20048;-73
2022/01/16 03:45:18;;;;;;;66.65;27.92;;;;;;;-2.09;nan;101775.78;5073521;28;20029;-73
2022/01/16 03:47:43;;;;;;;68.72;29.50;;;;;;;-2.07;nan;101763.59;5073776;28;20024;-73
2022/01/16 03:50:09;;;;;;;70.38;28.70;;;;;;;-2.16;nan;101748.75;5074002;28;20101;-72
2022/01/16 03:52:35;;;;;;;60.03;26.98;;;;;;;-2.18;nan;101742.88;5063680;28;20032;-73
2022/01/16 03:55:02;;;;;;;73.88;28.27;;;;;;;-2.03;nan;101771.97;5054942;28;20041;-72
2022/01/16 03:57:28;;;;;;;67.40;27.65;;;;;;;-2.18;nan;101746.31;5070884;28;20031;-72
2022/01/16 03:59:53;;;;;;;69.43;28.08;;;;;;;-2.12;nan;101752.78;5059654;28;20116;-73
2022/01/16 04:02:18;;;;;;;63.20;26.45;;;;;;;-2.07;nan;101768.75;5052628;28;20120;-73
2022/01/16 04:04:44;;;;;;;72.22;27.08;;;;;;;-2.00;nan;101769.16;5063419;28;20458;-72
2022/01/16 04:07:14;;;;;;;64.40;26.65;;;;;;;-2.03;nan;101771.97;5068462;28;20040;-73
2022/01/16 04:09:40;;;;;;;73.13;29.08;;;;;;;-2.05;nan;101773.81;5055625;28;20483;-73
2022/01/16 04:12:07;;;;;;;68.18;27.50;;;;;;;-2.04;nan;101767.72;5070112;28;20036;-73
2022/01/16 04:17:16;;;;;;;71.97;28.45;;;;;;;-2.00;nan;101775.13;5062995;28;20060;-73
2022/01/16 04:19:42;;;;;;;68.10;28.45;;;;;;;-2.03;nan;101779.69;5036418;28;20071;-74
2022/01/16 04:22:07;;;;;;;65.35;27.05;;;;;;;-2.09;nan;101772.38;5039231;28;20033;-71
2022/01/16 04:24:33;;;;;;;70.88;28.48;;;;;;;-2.16;nan;101757.31;5058908;28;20372;-72
2022/01/16 04:26:59;;;;;;;64.68;26.77;;;;;;;-2.04;nan;101785.78;5060600;28;20544;-73
2022/01/16 04:29:25;;;;;;;61.97;26.77;;;;;;;-2.21;nan;101754.25;5055716;28;20037;-71
2022/01/16 04:31:50;;;;;;;57.55;26.42;;;;;;;-2.23;nan;101748.34;5061072;28;20048;-71
2022/01/16 04:34:16;;;;;;;62.38;26.98;;;;;;;-2.14;nan;101760.63;5040382;28;20041;-71
2022/01/16 04:36:42;;;;;;;62.03;25.92;;;;;;;-2.15;nan;101764.13;5047301;28;20401;-69
2022/01/16 04:39:12;;;;;;;61.47;25.67;;;;;;;-2.17;nan;101768.59;5055616;28;20040;-72
2022/01/16 04:44:22;;;;;;;61.53;25.35;;;;;;;-2.30;nan;101752.31;5061735;28;20119;-72
2022/01/16 04:46:47;;;;;;;62.45;27.50;;;;;;;-2.31;nan;101755.81;5055323;28;20025;-72
2022/01/16 04:49:13;;;;;;;68.82;30.35;;;;;;;-2.45;nan;101749.03;5048922;28;20048;-71
2022/01/16 04:51:38;;;;;;;67.75;30.02;;;;;;;-2.45;nan;101751.63;5037125;28;20368;-71
2022/01/16 04:54:04;;;;;;;77.45;32.00;;;;;;;-2.45;nan;101738.72;5053414;28;20037;-72
2022/01/16 04:56:30;;;;;;;74.57;32.13;;;;;;;-2.48;nan;101732.97;5057767;28;20028;-72
2022/01/16 04:58:56;;;;;;;82.93;33.88;;;;;;;-2.55;nan;101722.25;5041749;28;20402;-70
2022/01/16 05:01:22;;;;;;;94.20;37.83;;;;;;;-2.54;nan;101718.72;5055187;28;20047;-71
2022/01/16 05:03:48;;;;;;;89.07;37.78;;;;;;;-2.38;nan;101744.28;5074139;28;20539;-70
2022/01/16 05:06:14;;;;;;;98.68;41.13;;;;;;;-2.45;nan;101722.44;5092709;28;20123;-71
2022/01/16 05:08:39;;;;;;;89.05;39.65;;;;;;;-2.48;nan;101720.91;5087012;28;20036;-71
2022/01/16 05:11:06;;;;;;;82.38;35.38;;;;;;;-2.49;nan;101721.00;5080677;28;20070;-70
2022/01/16 05:18:49;;;;;;;61.92;26.55;;;;;;;-2.55;nan;101690.50;5090271;28;20036;-72
2022/01/16 05:21:15;;;;;;;59.90;24.48;;;;;;;-2.62;nan;101690.09;5083483;28;20474;-72
2022/01/16 05:23:43;;;;;;;66.13;27.33;;;;;;;-2.52;nan;101711.72;5082461;28;20034;-73
2022/01/16 05:26:11;;;;;;;63.33;28.20;;;;;;;-2.57;nan;101708.63;5070828;28;20379;-72
2022/01/16 05:28:37;;;;;;;73.35;29.23;;;;;;;-2.63;nan;101706.50;5079163;28;20032;-72
2022/01/16 05:31:03;;;;;;;70.07;29.05;;;;;;;-2.73;nan;101697.72;5080839;28;20032;-72
2022/01/16 05:33:29;;;;;;;66.03;28.02;;;;;;;-2.66;nan;101719.59;5076428;28;20044;-71
2022/01/16 05:35:54;;;;;;;65.95;27.77;;;;;;;-2.76;nan;101708.25;5083395;28;20071;-73
2022/01/16 05:38:20;;;;;;;60.47;25.60;;;;;;;-2.76;nan;101713.41;5085821;28;20119;-72
2022/01/16 05:40:46;;;;;;;53.92;24.73;;;;;;;-2.82;nan;101715.50;5084045;28;20486;-71
2022/01/16 05:43:11;;;;;;;59.33;24.90;;;;;;;-2.82;nan;101720.66;5075831;28;20040;-73
2022/01/16 05:45:38;;;;;;;56.72;25.13;;;;;;;-2.91;nan;101708.38;5083862;28;20557;-72
2022/01/16 05:48:04;;;;;;;50.72;23.08;;;;;;;-3.12;nan;101690.03;5079282;28;20031;-71
2022/01/16 05:50:33;;;;;;;52.22;23.70;;;;;;;-2.91;nan;101723.84;5078638;28;20099;-71
2022/01/16 05:52:59;;;;;;;59.07;25.17;;;;;;;-3.03;nan;101722.94;5077980;28;20103;-74
2022/01/16 05:55:33;;;;;;;54.38;24.20;;;;;;;-3.16;nan;101706.66;5084553;28;20331;-71
2022/01/16 05:57:59;;;;;;;56.88;24.52;;;;;;;-3.24;nan;101706.34;5082257;28;20063;-74
2022/01/16 06:00:25;;;;;;;57.88;25.38;;;;;;;-3.09;nan;101741.41;5082129;28;20071;-73
2022/01/16 06:02:50;;;;;;;60.63;24.90;;;;;;;-3.24;nan;101716.63;5085462;28;20051;-73
2022/01/16 06:05:19;;;;;;;56.30;25.50;;;;;;;-3.10;nan;101742.31;5079422;28;20040;-72
2022/01/16 06:07:50;;;;;;;38.00;17.37;;;;;;;-3.25;nan;101726.13;5073529;28;20467;-73
2022/01/16 06:10:16;;;;;;;57.10;25.92;;;;;;;-3.25;nan;101741.59;5089877;28;20068;-76
2022/01/16 06:12:41;;;;;;;59.50;26.27;;;;;;;-3.21;nan;101748.19;5081855;28;20129;-71
2022/01/16 06:15:07;;;;;;;54.78;24.73;;;;;;;-3.33;nan;101738.66;5085835;28;20028;-73
2022/01/16 06:17:32;;;;;;;57.65;24.30;;;;;;;-3.36;nan;101748.38;5089051;28;20032;-74
2022/01/16 06:19:58;;;;;;;62.50;26.67;;;;;;;-3.35;nan;101750.84;5083204;28;20482;-73
2022/01/16 06:22:23;;;;;;;54.78;24.88;;;;;;;-3.38;nan;101755.38;5083838;28;20127;-73
2022/01/16 06:24:48;;;;;;;51.08;24.63;;;;;;;-3.48;nan;101750.00;5091475;28;20390;-71
2022/01/16 06:27:14;;;;;;;56.30;26.30;;;;;;;-3.53;nan;101749.47;5086537;28;20039;-72
2022/01/16 06:29:39;;;;;;;57.28;25.60;;;;;;;-3.50;nan;101759.56;5080751;28;20032;-72
2022/01/16 06:32:05;;;;;;;57.95;26.48;;;;;;;-3.59;nan;101749.84;5088138;28;20036;-71
2022/01/16 06:34:31;;;;;;;64.32;28.20;;;;;;;-3.59;nan;101760.16;5088712;28;20032;-71
2022/01/16 06:36:58;;;;;;;60.00;26.73;;;;;;;-3.61;nan;101757.69;5083397;28;20494;-73
2022/01/16 06:39:24;;;;;;;63.40;28.33;;;;;;;-3.54;nan;101776.97;5083565;28;20745;-72
2022/01/16 06:41:50;;;;;;;63.90;27.58;;;;;;;-3.60;nan;101769.63;5093846;28;20499;-73
2022/01/16 06:44:15;;;;;;;64.47;28.30;;;;;;;-3.68;nan;101772.69;5083913;28;20485;-71
2022/01/16 06:46:41;;;;;;;83.72;32.80;;;;;;;-3.61;nan;101772.31;5077217;28;20049;-72
2022/01/16 06:49:06;;;;;;;287.88;87.18;;;;;;;-3.49;nan;101761.22;5079432;28;20043;-73
2022/01/16 06:51:32;;;;;;;132.73;49.60;;;;;;;-3.34;nan;101775.66;5093123;28;20077;-71
2022/01/16 06:53:57;;;;;;;86.40;35.80;;;;;;;-3.31;nan;101775.47;5082051;28;20028;-71
2022/01/16 06:56:24;;;;;;;80.05;34.63;;;;;;;-3.36;nan;101772.38;5090197;28;20032;-71
2022/01/16 06:58:49;;;;;;;82.13;34.80;;;;;;;-3.36;nan;101766.38;5093978;28;20386;-72
2022/01/16 07:01:15;;;;;;;75.60;32.80;;;;;;;-3.47;nan;101755.06;5094846;28;20028;-72
2022/01/16 07:03:41;;;;;;;82.70;32.78;;;;;;;-3.36;nan;101763.81;5073274;28;20048;-71
2022/01/16 07:06:06;;;;;;;87.65;36.00;;;;;;;-3.48;nan;101742.25;5037685;28;20091;-72
2022/01/16 07:08:32;;;;;;;94.00;35.70;;;;;;;-3.37;nan;101773.31;5056612;28;20490;-72
2022/01/16 07:10:59;;;;;;;91.10;36.10;;;;;;;-3.39;nan;101764.03;5064868;28;20047;-73
2022/01/16 07:13:25;;;;;;;90.90;35.83;;;;;;;-3.32;nan;101778.97;5046988;28;20048;-72
2022/01/16 07:15:51;;;;;;;99.85;37.03;;;;;;;-3.64;nan;101761.28;5052439;28;20047;-73
2022/01/16 07:18:18;;;;;;;108.95;41.00;;;;;;;-3.39;nan;101775.16;5046952;28;20029;-72
2022/01/16 07:20:44;;;;;;;101.30;37.03;;;;;;;-3.24;nan;101797.31;5046561;28;20094;-73
2022/01/16 07:23:11;;;;;;;102.55;37.72;;;;;;;-3.20;nan;101795.38;5072344;28;20025;-70
2022/01/16 07:25:37;;;;;;;90.95;37.17;;;;;;;-3.16;nan;101796.84;5065222;28;20086;-72
2022/01/16 07:28:03;;;;;;;99.50;37.90;;;;;;;-3.11;nan;101802.50;5053677;28;20032;-73
2022/01/16 07:30:29;;;;;;;150.52;41.53;;;;;;;-3.18;nan;101777.22;5058681;28;20746;-73
2022/01/16 07:32:54;;;;;;;94.55;37.28;;;;;;;-3.08;nan;101793.75;5048431;28;20389;-73
2022/01/16 07:35:20;;;;;;;90.22;37.30;;;;;;;-3.08;nan;101797.13;5059216;28;20039;-71
2022/01/16 07:37:47;;;;;;;90.10;37.28;;;;;;;-3.04;nan;101792.59;5053853;28;20045;-73
2022/01/16 07:40:13;;;;;;;86.80;37.55;;;;;;;-2.96;nan;101795.50;5062132;28;20060;-73
2022/01/16 07:42:39;;;;;;;105.25;38.88;;;;;;;-2.92;nan;101802.13;5054004;28;20029;-74
2022/01/16 07:45:04;;;;;;;99.22;36.47;;;;;;;-2.84;nan;101799.00;5039350;28;20047;-73
2022/01/16 07:47:30;;;;;;;93.88;36.53;;;;;;;-2.88;nan;101785.50;5051694;28;20125;-74
2022/01/16 07:49:55;;;;;;;94.80;39.55;;;;;;;-2.81;nan;101788.50;5055676;28;20028;-71
2022/01/16 07:52:21;;;;;;;101.30;42.20;;;;;;;-2.76;nan;101795.91;5072122;28;20093;-76
2022/01/16 07:54:46;;;;;;;106.78;42.53;;;;;;;-2.80;nan;101779.84;5035937;28;20453;-72
2022/01/16 07:57:12;;;;;;;109.32;44.95;;;;;;;-2.66;nan;101790.03;5054226;28;20032;-73
2022/01/16 07:59:37;;;;;;;107.63;44.63;;;;;;;-2.83;nan;101757.66;5048431;28;20037;-75
2022/01/16 08:02:04;;;;;;;110.18;45.20;;;;;;;-2.60;nan;101796.53;5063588;28;20036;-76
2022/01/16 08:04:29;;;;;;;113.57;47.47;;;;;;;-2.79;nan;101766.00;5059342;28;20107;-79
2022/01/16 08:06:54;;;;;;;117.82;48.22;;;;;;;-2.58;nan;101787.75;5053164;28;20491;-73
2022/01/16 08:09:20;;;;;;;131.65;52.00;;;;;;;-2.08;nan;101846.28;5066485;28;20044;-76
2022/01/16 08:11:45;;;;;;;130.20;52.15;;;;;;;-2.36;nan;101778.53;5053506;28;20170;-74
2022/01/16 08:14:10;;;;;;;130.80;52.20;;;;;;;-2.48;nan;101751.03;5051811;28;20040;-76
2022/01/16 08:16:36;;;;;;;122.95;49.50;;;;;;;-2.46;nan;101757.72;5039137;28;20036;-75
2022/01/16 08:19:01;;;;;;;130.45;52.42;;;;;;;-2.32;nan;101780.00;5060087;28;20114;-75
2022/01/16 08:21:27;;;;;;;127.93;50.53;;;;;;;-2.50;nan;101740.00;5061492;28;20028;-75
2022/01/16 08:23:52;;;;;;;117.47;50.58;;;;;;;-2.23;nan;101788.81;5054855;28;20039;-75
2022/01/16 08:26:17;;;;;;;118.47;48.92;;;;;;;-2.32;nan;101780.00;5054594;28;20048;-75
2022/01/16 08:28:43;;;;;;;120.05;49.80;;;;;;;-2.26;nan;101784.69;5049453;28;20033;-75
2022/01/16 08:31:08;;;;;;;119.90;47.55;;;;;;;-2.28;nan;101771.09;5060927;28;20124;-75
2022/01/16 08:33:34;;;;;;;284.00;69.43;;;;;;;-2.13;nan;101771.78;5072826;28;20029;-75
2022/01/16 08:35:59;;;;;;;124.50;53.47;;;;;;;-1.91;nan;101785.75;5070136;28;20021;-74
2022/01/16 08:38:26;;;;;;;127.15;51.08;;;;;;;-1.81;nan;101774.66;5056357;28;20055;-75
2022/01/16 08:40:52;;;;;;;132.73;53.67;;;;;;;-1.68;nan;101777.16;5049313;28;20036;-76
2022/01/16 08:43:17;;;;;;;145.20;57.17;;;;;;;-1.60;nan;101768.88;5072103;28;20127;-76
2022/01/16 08:45:43;;;;;;;151.90;57.58;;;;;;;-1.49;nan;101768.91;5065422;28;20032;-76
2022/01/16 08:48:09;;;;;;;149.77;56.70;;;;;;;-1.34;nan;101775.53;5057990;28;20037;-76
2022/01/16 08:50:37;;;;;;;116.65;47.50;;;;;;;-1.32;nan;101763.34;5057688;28;20513;-76
2022/01/16 08:53:03;;;;;;;103.68;43.30;;;;;;;-1.30;nan;101760.63;5036901;28;20036;-75
2022/01/16 08:55:28;;;;;;;86.97;37.38;;;;;;;-1.09;nan;101781.47;5038385;28;20040;-75
2022/01/16 08:57:55;;;;;;;84.70;37.55;;;;;;;-1.10;nan;101772.06;5047728;28;20491;-77
2022/01/16 09:00:20;;;;;;;89.25;37.03;;;;;;;-0.98;nan;101771.16;5054874;28;20043;-77
2022/01/16 09:02:46;;;;;;;84.40;37.22;;;;;;;-0.98;nan;101759.97;5057073;28;20048;-77
2022/01/16 09:05:11;;;;;;;80.68;34.75;;;;;;;-0.94;nan;101758.81;5064410;28;20044;-77
2022/01/16 09:07:37;;;;;;;74.72;32.78;;;;;;;-0.82;nan;101778.56;5035599;28;20123;-78
2022/01/16 09:10:04;;;;;;;74.10;31.33;;;;;;;-0.75;nan;101782.31;5057304;28;20070;-77
2022/01/16 09:12:30;;;;;;;67.15;31.38;;;;;;;-0.83;nan;101748.47;5036621;28;20029;-78
2022/01/16 09:14:56;;;;;;;70.10;31.45;;;;;;;-0.73;nan;101753.78;5054010;28;20017;-79
2022/01/16 09:17:23;;;;;;;76.65;32.90;;;;;;;-0.66;nan;101750.59;5063758;28;20106;-78
2022/01/16 09:19:48;;;;;;;82.57;35.17;;;;;;;-0.52;nan;101746.13;5062060;28;20051;-78
2022/01/16 09:22:14;;;;;;;98.03;38.03;;;;;;;-0.17;nan;101752.88;5057230;28;20032;-77
2022/01/16 09:24:40;;;;;;;103.43;41.42;;;;;;;0.06;nan;101751.88;5053827;28;20040;-78
2022/01/16 09:27:05;;;;;;;108.57;43.33;;;;;;;0.13;nan;101739.25;5048823;28;20035;-79
2022/01/16 09:29:31;;;;;;;97.18;42.10;;;;;;;0.30;nan;101750.84;5058950;28;20119;-77
2022/01/16 09:31:57;;;;;;;86.47;39.00;;;;;;;0.31;nan;101737.78;5063968;28;20028;-78
2022/01/16 09:34:22;;;;;;;79.65;35.25;;;;;;;0.30;nan;101730.13;5054695;28;20129;-76
2022/01/16 09:36:48;;;;;;;73.40;33.47;;;;;;;0.33;nan;101740.22;5069047;28;20055;-76
2022/01/16 09:39:13;;;;;;;72.05;34.13;;;;;;;0.29;nan;101734.50;5037691;28;20052;-71
2022/01/16 09:41:40;;;;;;;79.10;35.72;;;;;;;0.34;nan;101734.13;5047659;28;20039;-72
2022/01/16 09:44:06;;;;;;;80.63;36.03;;;;;;;0.29;nan;101731.91;5061324;28;20044;-71
2022/01/16 09:46:31;;;;;;;79.65;34.90;;;;;;;0.24;nan;101720.25;5053663;28;20028;-72
2022/01/16 09:48:57;;;;;;;84.05;36.03;;;;;;;0.23;nan;101710.84;5057453;28;20047;-70
2022/01/16 09:51:23;;;;;;;82.10;36.95;;;;;;;0.21;nan;101714.38;5054968;28;20090;-76
2022/01/16 09:53:49;;;;;;;101.88;41.88;;;;;;;0.40;nan;101715.47;5060283;28;20040;-77
2022/01/16 09:56:15;;;;;;;126.32;52.90;;;;;;;0.79;nan;101713.94;5060249;28;20100;-75
2022/01/16 09:58:41;;;;;;;96.57;41.63;;;;;;;0.99;nan;101706.25;5066827;28;20120;-77
2022/01/16 10:01:07;;;;;;;82.68;36.92;;;;;;;1.18;nan;101718.50;5052787;28;20486;-76
2022/01/16 10:03:40;;;;;;;79.75;37.15;;;;;;;1.33;nan;101705.97;5069518;28;20051;-76
2022/01/16 10:06:15;;;;;;;74.45;32.78;;;;;;;1.63;nan;101712.91;5077038;28;20044;-74
2022/01/16 10:08:42;;;;;;;66.70;31.30;;;;;;;1.71;nan;101723.44;5084563;28;20482;-75
2022/01/16 10:11:43;;;;;;;70.18;31.73;;;;;;;1.98;nan;101745.34;5095209;28;20082;-75
2022/01/16 10:14:15;;;;;;;66.35;30.25;;;;;;;1.76;nan;101697.88;5059215;28;20044;-74
2022/01/16 10:16:44;;;;;;;64.22;30.50;;;;;;;1.78;nan;101703.75;5101708;28;20082;-76
2022/01/16 10:19:27;;;;;;;68.63;30.35;;;;;;;1.78;nan;101701.16;5094952;28;20504;-76
2022/01/16 10:21:54;;;;;;;68.78;30.40;;;;;;;1.79;nan;101699.38;5079326;28;20041;-76
2022/01/16 10:24:24;;;;;;;63.40;29.85;;;;;;;1.75;nan;101701.44;5079157;28;20039;-76
2022/01/16 10:27:09;;;;;;;64.35;30.08;;;;;;;1.77;nan;101681.31;5077740;28;20131;-77
2022/01/16 10:29:40;;;;;;;65.85;31.13;;;;;;;1.79;nan;101683.78;5092420;28;20073;-71
2022/01/16 10:32:20;;;;;;;66.50;30.58;;;;;;;1.79;nan;101679.41;5087023;28;20037;-70
2022/01/16 10:34:54;;;;;;;66.40;30.27;;;;;;;1.82;nan;101678.31;5075518;28;20038;-70
2022/01/16 10:37:25;;;;;;;72.70;32.10;;;;;;;1.84;nan;101673.81;5088802;28;20039;-71
2022/01/16 10:40:14;;;;;;;70.10;32.30;;;;;;;1.85;nan;101665.91;5093050;28;20040;-71
2022/01/16 10:42:41;;;;;;;68.30;31.90;;;;;;;1.97;nan;101665.78;5067756;28;20028;-72
2022/01/16 10:45:12;;;;;;;70.95;32.50;;;;;;;1.91;nan;101644.56;5085853;28;20036;-72
2022/01/16 10:47:51;;;;;;;73.15;33.70;;;;;;;2.08;nan;101657.81;5095317;28;20024;-72
2022/01/16 10:50:19;;;;;;;84.50;37.50;;;;;;;2.10;nan;101635.94;5085798;28;20038;-72
2022/01/16 10:52:52;;;;;;;75.50;33.58;;;;;;;2.29;nan;101645.47;5096673;28;20498;-70
2022/01/16 10:55:20;;;;;;;62.80;30.45;;;;;;;2.33;nan;101641.66;5080648;28;20115;-71
2022/01/16 10:57:46;;;;;;;66.18;30.88;;;;;;;2.33;nan;101641.66;5092198;28;20047;-71
2022/01/16 11:00:21;;;;;;;63.50;31.05;;;;;;;2.41;nan;101640.13;5087884;28;20046;-70
2022/01/16 11:02:49;;;;;;;68.00;32.58;;;;;;;2.43;nan;101636.44;5087543;28;20090;-71
2022/01/16 11:05:20;;;;;;;58.90;30.85;;;;;;;2.43;nan;101625.22;5071404;28;20044;-71
2022/01/16 11:07:46;;;;;;;67.07;32.72;;;;;;;2.52;nan;101626.97;5040316;28;20037;-71
2022/01/16 11:10:30;;;;;;;66.95;31.65;;;;;;;2.57;nan;101621.34;5036775;28;20040;-70
2022/01/16 11:12:58;;;;;;;65.20;30.98;;;;;;;2.60;nan;101608.88;5049116;28;20111;-69
2022/01/16 11:15:25;;;;;;;67.53;30.17;;;;;;;2.63;nan;101608.56;5067564;28;20055;-69
2022/01/16 11:17:51;;;;;;;64.97;31.20;;;;;;;2.64;nan;101606.81;5059787;28;20035;-70
2022/01/16 11:20:22;;;;;;;63.80;30.80;;;;;;;2.60;nan;101590.66;5074584;28;20041;-70
2022/01/16 11:25:31;;;;;;;63.63;30.00;;;;;;;2.74;nan;101600.59;5051617;28;20025;-70
2022/01/16 11:28:18;;;;;;;59.58;29.83;;;;;;;2.79;nan;101597.56;5062733;28;20038;-70
2022/01/16 11:30:55;;;;;;;66.03;29.67;;;;;;;2.73;nan;101580.75;5045619;28;20043;-69
2022/01/16 11:33:23;;;;;;;62.28;30.25;;;;;;;2.80;nan;101574.97;5039640;28;20036;-71
2022/01/16 11:36:01;;;;;;;57.38;28.42;;;;;;;2.84;nan;101579.75;5051476;28;20111;-70
2022/01/16 11:38:30;;;;;;;63.22;29.55;;;;;;;2.84;nan;101573.72;5053578;28;20029;-71
2022/01/16 11:40:56;;;;;;;56.40;27.85;;;;;;;2.91;nan;101574.78;5054772;28;20029;-71
2022/01/16 11:43:30;;;;;;;59.58;29.17;;;;;;;2.92;nan;101566.00;5053532;28;20457;-71
2022/01/16 11:46:01;;;;;;;58.80;29.02;;;;;;;2.99;nan;101569.66;5053261;28;20029;-71
2022/01/16 11:48:34;;;;;;;60.10;29.80;;;;;;;3.03;nan;101560.59;5058621;28;20075;-75
2022/01/16 11:51:00;;;;;;;62.22;28.88;;;;;;;3.03;nan;101559.78;5053705;28;20036;-71
2022/01/16 11:54:04;;;;;;;57.22;28.63;;;;;;;3.09;nan;101560.03;5051314;28;20099;-71
2022/01/16 11:56:39;;;;;;;56.97;27.50;;;;;;;3.15;nan;101554.22;5062873;28;20386;-75
2022/01/16 11:59:30;;;;;;;59.85;27.30;;;;;;;3.13;nan;101550.13;5040330;28;20505;-74
2022/01/16 12:02:07;;;;;;;53.78;26.67;;;;;;;3.18;nan;101553.09;5062084;28;20036;-75
2022/01/16 12:04:33;;;;;;;53.92;27.38;;;;;;;3.15;nan;101554.22;5078072;28;20066;-71
2022/01/16 12:07:15;;;;;;;56.15;28.05;;;;;;;3.17;nan;101538.47;5081596;28;20044;-71
2022/01/16 12:09:57;;;;;;;57.58;27.50;;;;;;;3.22;nan;101538.03;5075073;28;20089;-70